createdAt,value
2024-02-19T00:02:26.286Z,2.63
2024-02-19T00:04:53.202Z,2.22
2024-02-19T00:07:20.183Z,2.40
2024-02-19T00:09:47.017Z,2.40
2024-02-19T00:12:14.356Z,1.90
2024-02-19T00:14:41.118Z,1.15
2024-02-19T00:17:09.183Z,2.28
2024-02-19T00:19:36.169Z,2.95
2024-02-19T00:22:03.243Z,2.17
2024-02-19T00:24:30.264Z,2.25
2024-02-19T00:26:57.098Z,1.50
2024-02-19T00:29:23.963Z,2.38
2024-02-19T00:31:50.695Z,3.10
2024-02-19T00:34:17.513Z,2.08
2024-02-19T00:36:44.449Z,2.30
2024-02-19T00:39:11.204Z,2.13
2024-02-19T00:41:38.285Z,2.90
2024-02-19T00:44:05.281Z,1.95
2024-02-19T00:46:32.958Z,3.03
2024-02-19T00:48:59.805Z,1.35
2024-02-19T00:51:26.656Z,2.38
2024-02-19T00:53:53.464Z,2.05
2024-02-19T00:56:20.646Z,2.05
2024-02-19T00:58:47.395Z,2.30
2024-02-19T01:01:14.610Z,1.50
2024-02-19T01:03:44.878Z,2.28
2024-02-19T01:06:11.937Z,2.05
2024-02-19T01:08:39.009Z,2.55
2024-02-19T01:11:05.861Z,1.42
2024-02-19T01:13:32.780Z,2.03
2024-02-19T01:15:59.510Z,2.35
2024-02-19T01:18:26.680Z,2.00
2024-02-19T01:20:53.520Z,2.33
2024-02-19T01:23:21.046Z,3.13
2024-02-19T01:25:47.713Z,2.28
2024-02-19T01:28:14.607Z,2.33
2024-02-19T01:30:41.550Z,2.17
2024-02-19T01:33:08.324Z,2.15
2024-02-19T01:35:35.169Z,2.40
2024-02-19T01:38:02.670Z,2.00
2024-02-19T01:40:29.632Z,2.25
2024-02-19T01:43:04.029Z,1.90
2024-02-19T01:45:31.084Z,2.38
2024-02-19T01:47:59.349Z,1.77
2024-02-19T01:50:35.923Z,1.92
2024-02-19T01:53:03.812Z,2.53
2024-02-19T01:55:31.690Z,2.15
2024-02-19T01:57:58.970Z,1.75
2024-02-19T02:00:25.965Z,1.67
2024-02-19T02:02:53.499Z,1.83
2024-02-19T02:05:20.744Z,1.48
2024-02-19T02:07:47.546Z,1.77
2024-02-19T02:10:14.560Z,1.83
2024-02-19T02:12:41.446Z,1.70
2024-02-19T02:15:08.891Z,1.90
2024-02-19T02:17:35.711Z,1.98
2024-02-19T02:20:02.746Z,1.55
2024-02-19T02:22:29.574Z,1.70
2024-02-19T02:24:56.371Z,1.98
2024-02-19T02:27:23.202Z,1.70
2024-02-19T02:29:49.950Z,1.50
2024-02-19T02:32:16.690Z,1.92
2024-02-19T02:34:43.490Z,1.55
2024-02-19T02:37:10.901Z,1.65
2024-02-19T02:39:37.707Z,1.63
2024-02-19T02:42:05.853Z,1.88
2024-02-19T02:44:32.700Z,1.50
2024-02-19T02:46:59.406Z,1.75
2024-02-19T02:49:26.790Z,1.75
2024-02-19T02:51:53.702Z,2.20
2024-02-19T02:54:20.500Z,1.63
2024-02-19T02:56:48.314Z,1.83
2024-02-19T02:59:15.098Z,2.03
2024-02-19T03:01:41.916Z,1.90
2024-02-19T03:04:08.806Z,1.70
2024-02-19T03:06:35.750Z,1.73
2024-02-19T03:09:02.585Z,1.40
2024-02-19T03:11:29.387Z,2.58
2024-02-19T03:13:56.123Z,1.70
2024-02-19T03:16:22.956Z,1.63
2024-02-19T03:18:49.836Z,2.10
2024-02-19T03:21:18.298Z,1.95
2024-02-19T03:23:52.708Z,1.95
2024-02-19T03:26:37.355Z,2.17
2024-02-19T03:29:12.980Z,1.88
2024-02-19T03:31:40.681Z,1.75
2024-02-19T03:34:07.683Z,1.70
2024-02-19T03:36:34.605Z,1.23
2024-02-19T03:39:01.284Z,1.63
2024-02-19T03:41:28.324Z,1.63
2024-02-19T03:43:55.152Z,1.58
2024-02-19T03:46:21.970Z,1.20
2024-02-19T03:48:48.855Z,1.20
2024-02-19T03:51:15.851Z,1.75
2024-02-19T03:53:42.644Z,1.40
2024-02-19T03:56:09.360Z,1.60
2024-02-19T03:58:36.399Z,1.48
2024-02-19T04:01:06.317Z,1.20
2024-02-19T04:03:35.171Z,1.17
2024-02-19T04:06:02.327Z,1.15
2024-02-19T04:08:29.113Z,1.60
2024-02-19T04:10:55.937Z,1.35
2024-02-19T04:13:22.742Z,1.80
2024-02-19T04:15:49.588Z,1.20
2024-02-19T04:18:16.364Z,1.38
2024-02-19T04:20:43.618Z,1.40
2024-02-19T04:23:10.311Z,1.70
2024-02-19T04:25:37.066Z,1.35
2024-02-19T04:28:07.252Z,1.15
2024-02-19T04:30:33.976Z,1.30
2024-02-19T04:33:00.767Z,1.45
2024-02-19T04:35:27.518Z,1.05
2024-02-19T04:37:54.246Z,1.50
2024-02-19T04:40:21.036Z,1.50
2024-02-19T04:42:47.933Z,1.40
2024-02-19T04:45:14.883Z,1.25
2024-02-19T04:47:41.637Z,1.40
2024-02-19T04:50:09.734Z,1.50
2024-02-19T04:52:36.963Z,1.23
2024-02-19T04:55:04.217Z,1.50
2024-02-19T04:57:30.968Z,1.52
2024-02-19T04:59:57.678Z,1.40
2024-02-19T05:02:24.367Z,1.42
2024-02-19T05:04:51.756Z,1.98
2024-02-19T05:07:18.780Z,2.00
2024-02-19T05:09:45.874Z,2.65
2024-02-19T05:12:13.900Z,2.75
2024-02-19T05:14:40.745Z,2.78
2024-02-19T05:17:09.057Z,2.85
2024-02-19T05:19:36.287Z,3.03
2024-02-19T05:22:03.138Z,3.00
2024-02-19T05:24:30.258Z,2.63
2024-02-19T05:26:57.008Z,2.53
2024-02-19T05:29:25.100Z,2.08
2024-02-19T05:31:52.775Z,3.08
2024-02-19T05:34:20.759Z,2.10
2024-02-19T05:36:48.421Z,3.22
2024-02-19T05:39:15.277Z,2.70
2024-02-19T05:41:42.627Z,2.40
2024-02-19T05:44:10.457Z,3.30
2024-02-19T05:46:37.544Z,4.28
2024-02-19T05:49:04.513Z,3.42
2024-02-19T05:51:31.680Z,3.97
2024-02-19T05:53:58.439Z,3.97
2024-02-19T05:56:27.268Z,4.05
2024-02-19T05:58:55.291Z,3.92
2024-02-19T06:01:22.598Z,3.63
2024-02-19T06:03:49.552Z,4.20
2024-02-19T06:06:16.441Z,3.97
2024-02-19T06:08:43.196Z,2.95
2024-02-19T06:11:10.097Z,4.03
2024-02-19T06:13:36.871Z,3.70
2024-02-19T06:16:03.849Z,3.47
2024-02-19T06:18:30.855Z,3.35
2024-02-19T06:20:57.814Z,3.80
2024-02-19T06:23:24.522Z,3.83
2024-02-19T06:25:51.454Z,4.00
2024-02-19T06:28:21.446Z,3.55
2024-02-19T06:30:48.326Z,4.32
2024-02-19T06:33:17.533Z,3.50
2024-02-19T06:35:45.320Z,3.97
2024-02-19T06:38:12.389Z,4.38
2024-02-19T06:40:39.167Z,4.18
2024-02-19T06:43:06.083Z,4.35
2024-02-19T06:45:33.002Z,4.22
2024-02-19T06:47:59.846Z,4.32
2024-02-19T06:50:26.708Z,4.43
2024-02-19T06:52:53.663Z,4.15
2024-02-19T06:55:20.484Z,4.55
2024-02-19T06:57:47.406Z,4.30
2024-02-19T07:00:15.906Z,4.20
2024-02-19T07:02:43.391Z,4.28
2024-02-19T07:05:10.694Z,3.92
2024-02-19T07:07:39.020Z,4.65
2024-02-19T07:10:06.542Z,4.30
2024-02-19T07:12:33.544Z,4.47
2024-02-19T07:15:00.551Z,5.32
2024-02-19T07:17:30.740Z,4.03
2024-02-19T07:19:57.640Z,4.63
2024-02-19T07:22:24.721Z,5.38
2024-02-19T07:24:56.433Z,5.88
2024-02-19T07:27:26.944Z,6.47
2024-02-19T07:29:55.329Z,6.63
2024-02-19T07:32:22.876Z,7.57
2024-02-19T07:34:50.065Z,6.93
2024-02-19T07:37:16.972Z,6.78
2024-02-19T07:39:44.694Z,8.95
2024-02-19T07:42:11.571Z,7.28
2024-02-19T07:44:38.285Z,7.13
2024-02-19T07:47:05.312Z,8.25
2024-02-19T07:49:32.806Z,7.82
2024-02-19T07:51:59.809Z,8.00
2024-02-19T07:54:26.660Z,9.00
2024-02-19T07:56:53.464Z,9.10
2024-02-19T07:59:21.030Z,7.88
2024-02-19T08:01:47.925Z,8.18
2024-02-19T08:04:15.238Z,8.68
2024-02-19T08:06:42.658Z,8.88
2024-02-19T08:09:09.720Z,8.40
2024-02-19T08:11:36.508Z,8.65
2024-02-19T08:14:03.950Z,10.05
2024-02-19T08:16:31.203Z,9.10
2024-02-19T08:18:59.737Z,8.43
2024-02-19T08:21:26.666Z,8.38
2024-02-19T08:23:53.473Z,9.00
2024-02-19T08:26:20.710Z,8.02
2024-02-19T08:28:48.054Z,8.60
2024-02-19T08:31:14.829Z,8.00
2024-02-19T08:33:42.073Z,8.02
2024-02-19T08:36:09.054Z,7.30
2024-02-19T08:38:36.001Z,8.43
2024-02-19T08:41:02.832Z,8.48
2024-02-19T08:43:31.015Z,8.07
2024-02-19T08:45:57.803Z,7.68
2024-02-19T08:48:24.674Z,9.32
2024-02-19T08:50:53.826Z,9.55
2024-02-19T08:53:21.045Z,8.40
2024-02-19T08:55:47.842Z,10.20
2024-02-19T08:58:14.751Z,9.32
2024-02-19T09:00:41.829Z,9.65
2024-02-19T09:03:08.732Z,9.90
2024-02-19T09:05:37.861Z,9.48
2024-02-19T09:08:05.898Z,10.18
2024-02-19T09:10:32.979Z,9.48
2024-02-19T09:13:01.929Z,9.82
2024-02-19T09:15:29.406Z,9.32
2024-02-19T09:17:56.715Z,9.20
2024-02-19T09:20:23.786Z,8.82
2024-02-19T09:22:50.916Z,9.02
2024-02-19T09:25:18.100Z,8.40
2024-02-19T09:27:45.881Z,7.15
2024-02-19T09:30:13.744Z,7.80
2024-02-19T09:32:40.778Z,6.95
2024-02-19T09:35:07.988Z,7.28
2024-02-19T09:37:34.955Z,6.18
2024-02-19T09:40:04.984Z,7.10
2024-02-19T09:42:33.070Z,6.47
2024-02-19T09:44:59.975Z,7.45
2024-02-19T09:47:28.033Z,6.88
2024-02-19T09:49:55.205Z,6.53
2024-02-19T09:52:29.735Z,7.28
2024-02-19T09:54:57.309Z,6.88
2024-02-19T09:57:24.930Z,6.90
2024-02-19T09:59:51.700Z,7.97
2024-02-19T10:02:21.195Z,6.90
2024-02-19T10:04:49.158Z,7.22
2024-02-19T10:07:20.252Z,5.68
2024-02-19T10:09:51.012Z,7.38
2024-02-19T10:12:18.452Z,6.88
2024-02-19T10:14:45.204Z,7.10
2024-02-19T10:17:12.692Z,5.70
2024-02-19T10:19:39.908Z,7.00
2024-02-19T10:22:08.983Z,6.72
2024-02-19T10:24:37.268Z,6.93
2024-02-19T10:27:05.061Z,6.65
2024-02-19T10:29:31.849Z,6.72
2024-02-19T10:31:58.636Z,5.38
2024-02-19T10:34:25.648Z,6.22
2024-02-19T10:36:52.731Z,6.43
2024-02-19T10:39:19.638Z,7.35
2024-02-19T10:41:46.381Z,5.70
2024-02-19T10:44:13.230Z,5.57
2024-02-19T10:46:41.081Z,7.03
2024-02-19T10:49:08.678Z,6.07
2024-02-19T10:51:36.596Z,6.25
2024-02-19T10:54:04.525Z,5.70
2024-02-19T10:56:39.791Z,5.57
2024-02-19T10:59:10.433Z,5.78
2024-02-19T11:01:38.245Z,5.72
2024-02-19T11:04:21.800Z,6.25
2024-02-19T11:06:58.247Z,6.25
2024-02-19T11:09:31.026Z,6.25
2024-02-19T11:12:00.017Z,6.25
2024-02-19T11:14:34.736Z,6.65
2024-02-19T11:17:02.828Z,6.85
2024-02-19T11:19:30.707Z,7.38
2024-02-19T11:22:05.953Z,6.70
2024-02-19T11:24:32.784Z,6.80
2024-02-19T11:26:59.804Z,6.95
2024-02-19T11:29:33.536Z,8.00
2024-02-19T11:32:08.259Z,9.18
2024-02-19T11:34:35.647Z,8.23
2024-02-19T11:37:12.941Z,11.52
2024-02-19T11:39:41.103Z,10.35
2024-02-19T11:42:11.565Z,10.30
2024-02-19T11:44:38.605Z,10.75
2024-02-19T11:47:05.583Z,10.27
2024-02-19T11:49:32.507Z,12.50
2024-02-19T11:52:07.684Z,11.98
2024-02-19T11:54:39.969Z,13.88
2024-02-19T11:57:09.690Z,13.43
2024-02-19T11:59:37.538Z,13.35
2024-02-19T12:02:06.944Z,13.25
2024-02-19T12:04:36.469Z,13.75
2024-02-19T12:07:03.675Z,12.45
2024-02-19T12:09:30.944Z,12.55
2024-02-19T12:11:58.098Z,12.30
2024-02-19T12:14:25.583Z,11.98
2024-02-19T12:16:54.045Z,12.75
2024-02-19T12:19:21.562Z,10.70
2024-02-19T12:21:48.528Z,11.65
2024-02-19T12:24:15.932Z,10.95
2024-02-19T12:26:45.116Z,11.57
2024-02-19T12:29:13.531Z,11.30
2024-02-19T12:31:40.330Z,11.20
2024-02-19T12:34:07.795Z,10.35
2024-02-19T12:36:34.796Z,13.05
2024-02-19T12:39:02.566Z,12.18
2024-02-19T12:41:29.867Z,12.52
2024-02-19T12:43:58.704Z,12.02
2024-02-19T12:46:26.165Z,11.35
2024-02-19T12:48:55.166Z,11.43
2024-02-19T12:51:21.940Z,10.93
2024-02-19T12:53:48.816Z,9.55
2024-02-19T12:56:16.156Z,9.20
2024-02-19T12:58:42.988Z,10.63
2024-02-19T13:01:20.471Z,8.18
2024-02-19T13:03:54.675Z,9.02
2024-02-19T13:06:21.829Z,9.30
2024-02-19T13:08:49.100Z,8.60
2024-02-19T13:11:17.985Z,8.63
2024-02-19T13:13:45.784Z,9.57
2024-02-19T13:16:15.712Z,9.07
2024-02-19T13:18:42.959Z,9.43
2024-02-19T13:21:10.411Z,9.00
2024-02-19T13:23:37.578Z,9.38
2024-02-19T13:26:04.880Z,9.10
2024-02-19T13:28:32.441Z,8.57
2024-02-19T13:30:59.998Z,9.57
2024-02-19T13:33:27.843Z,8.10
2024-02-19T13:35:55.009Z,7.15
2024-02-19T13:38:23.043Z,7.60
2024-02-19T13:40:50.925Z,7.47
2024-02-19T13:43:18.269Z,6.28
2024-02-19T13:46:04.121Z,3.88
2024-02-19T13:48:31.762Z,5.82
2024-02-19T13:51:00.448Z,5.45
2024-02-19T13:53:28.685Z,5.03
2024-02-19T13:55:56.565Z,4.35
2024-02-19T13:58:24.431Z,5.28
2024-02-19T14:00:57.008Z,5.22
2024-02-19T14:03:24.215Z,4.57
2024-02-19T14:05:51.326Z,5.07
2024-02-19T14:08:20.423Z,5.05
2024-02-19T14:10:52.087Z,3.35
2024-02-19T14:13:24.412Z,4.68
2024-02-19T14:15:51.544Z,4.50
2024-02-19T14:18:18.430Z,5.03
2024-02-19T14:20:45.251Z,4.75
2024-02-19T14:23:13.886Z,4.55
2024-02-19T14:25:41.348Z,4.63
2024-02-19T14:28:10.285Z,5.72
2024-02-19T14:30:37.629Z,6.03
2024-02-19T14:33:05.092Z,5.75
2024-02-19T14:35:32.517Z,5.53
2024-02-19T14:38:01.531Z,5.82
2024-02-19T14:40:28.810Z,5.72
2024-02-19T14:42:57.014Z,6.15
2024-02-19T14:45:26.492Z,6.25
2024-02-19T14:47:53.391Z,6.85
2024-02-19T14:50:20.817Z,6.97
2024-02-19T14:52:48.782Z,7.05
2024-02-19T14:55:16.956Z,6.50
2024-02-19T14:57:46.015Z,7.57
2024-02-19T15:00:18.072Z,7.15
2024-02-19T15:02:46.356Z,6.63
2024-02-19T15:05:13.654Z,6.38
2024-02-19T15:07:45.914Z,7.18
2024-02-19T15:10:15.694Z,6.25
2024-02-19T15:12:44.576Z,6.63
2024-02-19T15:15:14.196Z,6.88
2024-02-19T15:17:41.841Z,6.07
2024-02-19T15:20:10.340Z,6.85
2024-02-19T15:22:37.682Z,7.80
2024-02-19T15:25:05.972Z,7.15
2024-02-19T15:27:33.305Z,7.70
2024-02-19T15:30:01.557Z,7.00
2024-02-19T15:32:29.180Z,7.22
2024-02-19T15:34:56.103Z,7.65
2024-02-19T15:37:23.776Z,7.15
2024-02-19T15:39:51.130Z,8.02
2024-02-19T15:42:18.036Z,7.97
2024-02-19T15:44:46.840Z,7.88
2024-02-19T15:47:14.028Z,8.50
2024-02-19T15:49:41.823Z,7.55
2024-02-19T15:52:09.025Z,8.35
2024-02-19T15:54:40.276Z,8.20
2024-02-19T15:57:07.088Z,9.13
2024-02-19T15:59:34.380Z,9.27
2024-02-19T16:02:01.460Z,8.57
2024-02-19T16:04:28.711Z,8.15
2024-02-19T16:06:55.901Z,7.93
2024-02-19T16:09:22.929Z,9.52
2024-02-19T16:11:51.478Z,9.20
2024-02-19T16:14:20.520Z,9.95
2024-02-19T16:16:47.251Z,9.63
2024-02-19T16:19:15.236Z,8.98
2024-02-19T16:21:42.408Z,9.48
2024-02-19T16:24:10.920Z,9.65
2024-02-19T16:26:38.374Z,10.77
2024-02-19T16:29:05.269Z,10.43
2024-02-19T16:31:33.229Z,10.80
2024-02-19T16:34:00.796Z,10.38
2024-02-19T16:36:27.840Z,10.05
2024-02-19T16:38:55.048Z,11.15
2024-02-19T16:41:22.016Z,10.70
2024-02-19T16:43:49.658Z,11.40
2024-02-19T16:46:22.295Z,11.52
2024-02-19T16:48:49.211Z,8.32
2024-02-19T16:51:16.105Z,10.20
2024-02-19T16:53:47.923Z,8.30
2024-02-19T16:56:16.288Z,9.73
2024-02-19T16:58:43.525Z,11.48
2024-02-19T17:01:12.159Z,9.20
2024-02-19T17:03:40.417Z,11.18
2024-02-19T17:06:07.563Z,10.55
2024-02-19T17:08:34.540Z,9.15
2024-02-19T17:11:01.369Z,10.23
2024-02-19T17:13:29.007Z,6.07
2024-02-19T17:15:56.238Z,8.95
2024-02-19T17:18:23.162Z,8.05
2024-02-19T17:20:50.357Z,9.13
2024-02-19T17:23:19.079Z,6.70
2024-02-19T17:25:47.500Z,9.48
2024-02-19T17:28:14.382Z,9.55
2024-02-19T17:30:43.720Z,8.05
2024-02-19T17:33:10.568Z,10.60
2024-02-19T17:35:41.372Z,10.27
2024-02-19T17:38:10.957Z,11.45
2024-02-19T17:40:37.933Z,11.40
2024-02-19T17:43:05.622Z,11.43
2024-02-19T17:45:32.694Z,11.80
2024-02-19T17:47:59.719Z,11.77
2024-02-19T17:50:26.727Z,11.70
2024-02-19T17:52:53.524Z,11.73
2024-02-19T17:55:20.808Z,9.75
2024-02-19T17:57:49.096Z,11.07
2024-02-19T18:00:16.925Z,10.93
2024-02-19T18:02:45.019Z,9.70
2024-02-19T18:05:12.194Z,9.95
2024-02-19T18:07:39.115Z,7.43
2024-02-19T18:10:06.349Z,9.00
2024-02-19T18:12:33.315Z,9.20
2024-02-19T18:15:00.725Z,9.90
2024-02-19T18:17:28.046Z,9.35
2024-02-19T18:19:56.173Z,9.85
2024-02-19T18:22:23.258Z,8.55
2024-02-19T18:24:52.017Z,9.20
2024-02-19T18:27:19.808Z,9.32
2024-02-19T18:29:46.564Z,8.88
2024-02-19T18:32:15.515Z,9.68
2024-02-19T18:34:46.547Z,9.30
2024-02-19T18:37:13.543Z,8.88
2024-02-19T18:39:40.393Z,8.88
2024-02-19T18:42:09.518Z,9.32
2024-02-19T18:44:36.576Z,8.23
2024-02-19T18:47:04.270Z,8.65
2024-02-19T18:49:35.976Z,9.05
2024-02-19T18:52:04.892Z,8.05
2024-02-19T18:54:32.865Z,8.15
2024-02-19T18:57:04.801Z,7.80
2024-02-19T18:59:31.883Z,7.57
2024-02-19T19:02:01.921Z,8.60
2024-02-19T19:04:29.207Z,8.52
2024-02-19T19:06:57.032Z,8.40
2024-02-19T19:09:24.151Z,9.05
2024-02-19T19:11:51.353Z,9.05
2024-02-19T19:14:19.498Z,9.60
2024-02-19T19:16:47.108Z,8.50
2024-02-19T19:19:14.006Z,8.57
2024-02-19T19:21:43.574Z,8.80
2024-02-19T19:24:11.100Z,7.82
2024-02-19T19:26:38.001Z,6.97
2024-02-19T19:29:04.949Z,7.75
2024-02-19T19:31:33.280Z,7.03
2024-02-19T19:34:00.920Z,7.90
2024-02-19T19:36:27.941Z,8.48
2024-02-19T19:38:54.770Z,8.50
2024-02-19T19:41:21.560Z,8.45
2024-02-19T19:43:50.677Z,8.48
2024-02-19T19:46:18.163Z,9.48
2024-02-19T19:48:46.945Z,9.27
2024-02-19T19:51:14.552Z,7.53
2024-02-19T19:53:41.571Z,8.20
2024-02-19T19:56:10.237Z,8.80
2024-02-19T19:58:38.981Z,8.43
2024-02-19T20:01:10.297Z,8.07
2024-02-19T20:03:37.869Z,7.43
2024-02-19T20:06:05.393Z,8.15
2024-02-19T20:08:32.857Z,7.78
2024-02-19T20:10:59.919Z,6.95
2024-02-19T20:13:27.680Z,7.03
2024-02-19T20:15:54.914Z,7.03
2024-02-19T20:18:24.900Z,7.53
2024-02-19T20:20:51.891Z,7.10
2024-02-19T20:23:19.512Z,6.43
2024-02-19T20:25:48.829Z,6.82
2024-02-19T20:28:15.617Z,6.68
2024-02-19T20:30:42.501Z,6.70
2024-02-19T20:33:09.321Z,7.43
2024-02-19T20:35:36.750Z,6.75
2024-02-19T20:38:03.732Z,4.25
2024-02-19T20:40:30.943Z,6.57
2024-02-19T20:43:00.095Z,6.13
2024-02-19T20:45:28.695Z,6.18
2024-02-19T20:47:55.650Z,6.53
2024-02-19T20:50:22.647Z,5.82
2024-02-19T20:52:49.585Z,5.82
2024-02-19T20:55:16.724Z,5.65
2024-02-19T20:57:45.078Z,5.32
2024-02-19T21:00:13.042Z,4.47
2024-02-19T21:02:42.696Z,3.70
2024-02-19T21:05:11.988Z,5.43
2024-02-19T21:07:38.890Z,4.78
2024-02-19T21:10:06.290Z,4.82
2024-02-19T21:12:33.172Z,4.57
2024-02-19T21:15:00.641Z,4.85
2024-02-19T21:17:29.626Z,4.22
2024-02-19T21:20:00.910Z,4.53
2024-02-19T21:22:29.036Z,3.55
2024-02-19T21:25:00.559Z,4.35
2024-02-19T21:27:28.260Z,4.40
2024-02-19T21:29:55.510Z,3.58
2024-02-19T21:32:22.579Z,4.40
2024-02-19T21:34:49.517Z,3.72
2024-02-19T21:37:16.916Z,3.33
2024-02-19T21:39:44.431Z,3.72
2024-02-19T21:42:19.083Z,4.85
2024-02-19T21:44:49.600Z,3.08
2024-02-19T21:47:17.010Z,3.55
2024-02-19T21:49:46.635Z,3.25
2024-02-19T21:52:14.679Z,3.17
2024-02-19T21:54:41.519Z,3.17
2024-02-19T21:57:08.708Z,3.22
2024-02-19T21:59:35.628Z,3.72
2024-02-19T22:02:02.593Z,3.20
2024-02-19T22:04:32.759Z,2.83
2024-02-19T22:06:59.789Z,2.50
2024-02-19T22:09:26.565Z,3.25
2024-02-19T22:11:53.382Z,2.72
2024-02-19T22:14:20.821Z,3.38
2024-02-19T22:16:47.784Z,3.70
2024-02-19T22:19:14.594Z,3.13
2024-02-19T22:21:41.507Z,2.38
2024-02-19T22:24:08.800Z,3.53
2024-02-19T22:26:35.588Z,3.35
2024-02-19T22:29:02.440Z,3.42
2024-02-19T22:31:29.495Z,3.78
2024-02-19T22:33:56.471Z,2.53
2024-02-19T22:36:24.350Z,3.45
2024-02-19T22:38:51.224Z,3.40
2024-02-19T22:41:17.964Z,3.00
2024-02-19T22:43:44.770Z,2.97
2024-02-19T22:46:11.660Z,3.33
2024-02-19T22:48:38.811Z,2.72
2024-02-19T22:51:05.741Z,4.63
2024-02-19T22:53:32.494Z,3.10
2024-02-19T22:55:59.311Z,3.22
2024-02-19T22:58:32.674Z,3.58
2024-02-19T23:01:02.467Z,3.40
2024-02-19T23:03:29.884Z,3.17
2024-02-19T23:05:56.900Z,2.92
2024-02-19T23:08:23.796Z,2.92
2024-02-19T23:10:52.029Z,4.82
2024-02-19T23:13:19.694Z,3.78
2024-02-19T23:15:46.590Z,2.80
2024-02-19T23:18:13.724Z,3.70
2024-02-19T23:20:40.495Z,3.80
2024-02-19T23:23:07.941Z,3.00
2024-02-19T23:25:34.819Z,4.10
2024-02-19T23:28:01.735Z,3.22
2024-02-19T23:30:29.803Z,3.75
2024-02-19T23:32:56.810Z,3.70
2024-02-19T23:35:24.665Z,3.33
2024-02-19T23:37:52.236Z,3.80
2024-02-19T23:40:19.167Z,3.15
2024-02-19T23:42:47.183Z,3.45
2024-02-19T23:45:14.033Z,3.35
2024-02-19T23:47:41.769Z,3.15
2024-02-19T23:50:09.590Z,3.17
2024-02-19T23:52:36.992Z,3.90
2024-02-19T23:55:04.439Z,3.60
2024-02-19T23:57:31.221Z,3.08
2024-02-19T23:59:59.637Z,3.10
